createdAt,value
2023-01-22T00:01:42.350Z,44.64
2023-01-22T00:04:09.639Z,44.49
2023-01-22T00:06:36.213Z,44.42
2023-01-22T00:09:03.971Z,44.64
2023-01-22T00:11:30.903Z,44.32
2023-01-22T00:13:57.475Z,44.74
2023-01-22T00:16:24.081Z,44.28
2023-01-22T00:18:50.658Z,44.45
2023-01-22T00:21:17.936Z,44.08
2023-01-22T00:23:44.475Z,43.76
2023-01-22T00:26:13.987Z,44.28
2023-01-22T00:28:42.394Z,43.27
2023-01-22T00:31:10.447Z,42.58
2023-01-22T00:33:38.908Z,44.00
2023-01-22T00:36:11.695Z,43.67
2023-01-22T00:38:38.516Z,43.52
2023-01-22T00:41:08.085Z,43.92
2023-01-22T00:43:38.689Z,42.60
2023-01-22T00:46:09.262Z,41.97
2023-01-22T00:48:36.738Z,42.28
2023-01-22T00:51:03.983Z,41.93
2023-01-22T00:53:31.267Z,41.28
2023-01-22T00:56:00.195Z,41.32
2023-01-22T00:58:28.243Z,40.35
2023-01-22T01:00:55.812Z,40.35
2023-01-22T01:03:32.009Z,40.54
2023-01-22T01:06:10.393Z,40.35
2023-01-22T01:08:42.237Z,39.11
2023-01-22T01:11:13.052Z,39.43
2023-01-22T01:13:43.085Z,41.48
2023-01-22T01:16:16.161Z,41.20
2023-01-22T01:18:45.122Z,39.90
2023-01-22T01:21:12.398Z,40.42
2023-01-22T01:23:39.693Z,41.33
2023-01-22T01:26:13.368Z,40.68
2023-01-22T01:28:41.569Z,39.72
2023-01-22T01:31:09.907Z,39.47
2023-01-22T01:33:36.584Z,40.31
2023-01-22T01:36:30.655Z,39.89
2023-01-22T01:39:03.948Z,41.17
2023-01-22T01:41:30.647Z,41.30
2023-01-22T01:44:21.943Z,41.80
2023-01-22T01:46:54.184Z,43.12
2023-01-22T01:49:35.082Z,42.75
2023-01-22T01:52:06.659Z,42.84
2023-01-22T01:54:33.861Z,43.14
2023-01-22T01:57:06.225Z,44.75
2023-01-22T01:59:33.881Z,46.04
2023-01-22T02:02:02.231Z,45.64
2023-01-22T02:04:29.577Z,45.67
2023-01-22T02:06:56.462Z,46.43
2023-01-22T02:09:23.164Z,46.52
2023-01-22T02:11:51.660Z,46.69
2023-01-22T02:14:22.591Z,46.58
2023-01-22T02:16:59.861Z,47.53
2023-01-22T02:19:26.402Z,48.27
2023-01-22T02:21:52.913Z,48.03
2023-01-22T02:24:19.513Z,48.77
2023-01-22T02:26:46.778Z,48.12
2023-01-22T02:29:18.091Z,48.07
2023-01-22T02:31:44.837Z,47.68
2023-01-22T02:34:11.555Z,46.34
2023-01-22T02:36:39.605Z,47.74
2023-01-22T02:39:07.080Z,47.60
2023-01-22T02:41:33.726Z,48.05
2023-01-22T02:44:00.484Z,46.80
2023-01-22T02:46:27.409Z,46.53
2023-01-22T02:48:54.031Z,45.85
2023-01-22T02:51:21.055Z,46.59
2023-01-22T02:53:49.346Z,46.85
2023-01-22T02:56:16.470Z,46.59
2023-01-22T02:58:43.128Z,47.11
2023-01-22T03:01:21.407Z,47.11
2023-01-22T03:03:51.639Z,48.20
2023-01-22T03:06:22.132Z,46.54
2023-01-22T03:08:49.565Z,46.81
2023-01-22T03:11:16.741Z,48.40
2023-01-22T03:14:02.391Z,48.50
2023-01-22T03:16:47.865Z,48.11
2023-01-22T03:19:33.118Z,47.00
2023-01-22T03:21:59.878Z,46.29
2023-01-22T03:24:26.816Z,46.88
2023-01-22T03:26:53.696Z,46.42
2023-01-22T03:29:20.289Z,43.52
2023-01-22T03:31:48.598Z,43.58
2023-01-22T03:34:17.001Z,43.70
2023-01-22T03:36:44.364Z,45.78
2023-01-22T03:39:12.329Z,45.84
2023-01-22T03:41:39.868Z,45.41
2023-01-22T03:44:11.692Z,45.64
2023-01-22T03:46:40.185Z,44.75
2023-01-22T03:49:08.616Z,46.72
2023-01-22T03:51:36.957Z,48.83
2023-01-22T03:54:04.402Z,50.38
2023-01-22T03:56:31.658Z,50.23
2023-01-22T03:59:04.485Z,51.80
2023-01-22T04:01:32.191Z,52.89
2023-01-22T04:03:59.872Z,53.41
2023-01-22T04:06:27.099Z,53.39
2023-01-22T04:08:55.197Z,52.32
2023-01-22T04:11:27.649Z,52.79
2023-01-22T04:13:55.704Z,52.58
2023-01-22T04:16:23.335Z,52.33
2023-01-22T04:18:55.616Z,51.98
2023-01-22T04:21:41.303Z,52.57
2023-01-22T04:24:10.423Z,52.03
2023-01-22T04:26:37.052Z,52.53
2023-01-22T04:29:03.900Z,52.60
2023-01-22T04:31:30.762Z,52.13
2023-01-22T04:34:23.885Z,52.55
2023-01-22T04:36:57.203Z,52.59
2023-01-22T04:39:26.707Z,52.15
2023-01-22T04:41:53.342Z,52.68
2023-01-22T04:44:19.907Z,52.87
2023-01-22T04:46:46.539Z,52.80
2023-01-22T04:49:13.567Z,51.92
2023-01-22T04:51:41.475Z,51.83
2023-01-22T04:54:08.173Z,51.25
2023-01-22T04:56:34.759Z,49.77
2023-01-22T04:59:02.510Z,49.74
2023-01-22T05:01:29.626Z,50.41
2023-01-22T05:03:56.300Z,51.01
2023-01-22T05:06:22.972Z,50.97
2023-01-22T05:08:49.624Z,51.86
2023-01-22T05:11:16.247Z,51.25
2023-01-22T05:13:49.789Z,51.71
2023-01-22T05:16:17.625Z,51.32
2023-01-22T05:18:44.612Z,51.65
2023-01-22T05:21:11.860Z,51.57
2023-01-22T05:23:38.562Z,53.13
2023-01-22T05:26:06.862Z,53.88
2023-01-22T05:28:51.895Z,52.28
2023-01-22T05:31:44.993Z,51.74
2023-01-22T05:34:25.597Z,52.49
2023-01-22T05:36:53.196Z,53.06
2023-01-22T05:39:23.963Z,51.73
2023-01-22T05:41:52.200Z,52.49
2023-01-22T05:44:18.693Z,52.49
2023-01-22T05:46:50.455Z,51.83
2023-01-22T05:49:43.195Z,50.97
2023-01-22T05:52:12.488Z,49.65
2023-01-22T05:54:39.873Z,49.78
2023-01-22T05:57:08.300Z,50.53
2023-01-22T05:59:37.562Z,51.64
2023-01-22T06:02:05.988Z,52.13
2023-01-22T06:04:35.591Z,51.37
2023-01-22T06:07:08.839Z,47.32
2023-01-22T06:09:35.798Z,47.99
2023-01-22T06:12:04.443Z,47.52
2023-01-22T06:14:31.332Z,49.95
2023-01-22T06:16:59.619Z,49.92
2023-01-22T06:19:38.119Z,51.05
2023-01-22T06:22:05.493Z,52.85
2023-01-22T06:24:47.879Z,51.81
2023-01-22T06:27:17.176Z,52.82
2023-01-22T06:29:57.600Z,52.48
2023-01-22T06:32:24.198Z,52.35
2023-01-22T06:34:51.936Z,51.95
2023-01-22T06:37:18.701Z,52.87
2023-01-22T06:39:45.403Z,52.64
2023-01-22T06:42:22.699Z,52.23
2023-01-22T06:44:51.651Z,49.81
2023-01-22T06:47:20.190Z,49.89
2023-01-22T06:49:46.893Z,48.20
2023-01-22T06:52:13.464Z,48.39
2023-01-22T06:54:40.137Z,47.98
2023-01-22T06:57:06.806Z,48.25
2023-01-22T06:59:37.276Z,49.12
2023-01-22T07:02:04.396Z,48.76
2023-01-22T07:04:30.871Z,49.97
2023-01-22T07:06:57.555Z,49.98
2023-01-22T07:09:24.067Z,50.84
2023-01-22T07:11:50.602Z,50.66
2023-01-22T07:14:28.862Z,50.67
2023-01-22T07:17:02.429Z,52.73
2023-01-22T07:19:28.955Z,53.16
2023-01-22T07:21:55.510Z,52.03
2023-01-22T07:24:21.996Z,51.16
2023-01-22T07:26:49.287Z,52.51
2023-01-22T07:29:15.949Z,51.89
2023-01-22T07:31:43.114Z,51.77
2023-01-22T07:34:10.706Z,51.67
2023-01-22T07:36:37.314Z,50.98
2023-01-22T07:39:05.629Z,49.46
2023-01-22T07:41:32.749Z,49.43
2023-01-22T07:44:00.456Z,48.40
2023-01-22T07:46:27.957Z,47.63
2023-01-22T07:48:54.724Z,47.43
2023-01-22T07:51:21.474Z,45.66
2023-01-22T07:53:48.004Z,45.51
2023-01-22T07:56:14.569Z,45.99
2023-01-22T07:58:41.421Z,45.91
2023-01-22T08:01:08.267Z,45.42
2023-01-22T08:03:34.990Z,45.35
2023-01-22T08:06:01.661Z,46.98
2023-01-22T08:08:28.284Z,46.67
2023-01-22T08:10:59.065Z,46.40
2023-01-22T08:13:25.789Z,45.59
2023-01-22T08:15:52.406Z,46.56
2023-01-22T08:18:20.864Z,47.00
2023-01-22T08:20:48.686Z,45.88
2023-01-22T08:23:15.247Z,43.29
2023-01-22T08:25:41.899Z,43.58
2023-01-22T08:28:08.449Z,43.92
2023-01-22T08:30:45.400Z,44.23
2023-01-22T08:33:12.547Z,43.24
2023-01-22T08:35:39.860Z,42.46
2023-01-22T08:38:06.482Z,41.49
2023-01-22T08:40:33.081Z,41.35
2023-01-22T08:42:59.736Z,41.37
2023-01-22T08:45:26.397Z,40.83
2023-01-22T08:47:58.869Z,40.63
2023-01-22T08:50:26.347Z,40.83
2023-01-22T08:52:52.862Z,39.67
2023-01-22T08:55:19.434Z,39.50
2023-01-22T08:57:52.497Z,39.39
2023-01-22T09:00:19.813Z,38.49
2023-01-22T09:02:46.591Z,37.53
2023-01-22T09:05:13.276Z,37.16
2023-01-22T09:07:39.790Z,35.21
2023-01-22T09:10:08.190Z,34.96
2023-01-22T09:12:35.069Z,34.85
2023-01-22T09:15:01.600Z,35.39
2023-01-22T09:17:28.162Z,36.31
2023-01-22T09:19:54.675Z,35.43
2023-01-22T09:22:21.238Z,35.90
2023-01-22T09:24:47.807Z,35.54
2023-01-22T09:27:14.301Z,36.00
2023-01-22T09:29:40.866Z,36.34
2023-01-22T09:32:07.445Z,35.72
2023-01-22T09:34:34.194Z,34.33
2023-01-22T09:37:02.643Z,34.64
2023-01-22T09:39:29.119Z,35.34
2023-01-22T09:41:59.844Z,34.75
2023-01-22T09:44:29.402Z,33.58
2023-01-22T09:47:01.242Z,33.86
2023-01-22T09:49:57.034Z,33.89
2023-01-22T09:52:31.614Z,31.14
2023-01-22T09:54:58.399Z,31.18
2023-01-22T09:57:31.499Z,30.07
2023-01-22T09:59:59.356Z,30.38
2023-01-22T10:02:39.237Z,30.74
2023-01-22T10:05:19.552Z,30.98
2023-01-22T10:08:02.551Z,30.83
2023-01-22T10:10:29.946Z,30.34
2023-01-22T10:13:21.688Z,31.29
2023-01-22T10:15:50.565Z,30.45
2023-01-22T10:18:42.109Z,30.78
2023-01-22T10:21:41.610Z,30.46
2023-01-22T10:24:10.835Z,30.47
2023-01-22T10:26:40.743Z,28.67
2023-01-22T10:29:15.774Z,29.13
2023-01-22T10:31:48.476Z,29.05
2023-01-22T10:34:20.263Z,29.75
2023-01-22T10:36:52.217Z,29.35
2023-01-22T10:39:19.634Z,28.81
2023-01-22T10:41:47.924Z,28.90
2023-01-22T10:44:21.173Z,27.60
2023-01-22T10:46:49.647Z,27.74
2023-01-22T10:49:25.370Z,27.30
2023-01-22T10:52:06.685Z,26.53
2023-01-22T10:54:39.619Z,27.16
2023-01-22T10:57:19.013Z,26.07
2023-01-22T11:00:07.220Z,26.20
2023-01-22T11:02:36.077Z,25.89
2023-01-22T11:05:40.002Z,25.47
2023-01-22T11:08:15.459Z,23.83
2023-01-22T11:10:49.015Z,23.43
2023-01-22T11:13:19.825Z,23.73
2023-01-22T11:15:56.127Z,21.85
2023-01-22T11:18:43.963Z,21.70
2023-01-22T11:21:18.697Z,22.49
2023-01-22T11:23:53.279Z,21.94
2023-01-22T11:26:25.898Z,19.15
2023-01-22T11:28:58.482Z,19.41
2023-01-22T11:31:36.032Z,18.88
2023-01-22T11:34:17.905Z,18.63
2023-01-22T11:37:03.359Z,17.78
2023-01-22T11:39:36.180Z,17.28
2023-01-22T11:42:12.244Z,17.49
2023-01-22T11:45:00.522Z,16.67
2023-01-22T11:47:45.127Z,17.01
2023-01-22T11:50:30.026Z,18.45
2023-01-22T11:53:21.322Z,19.18
2023-01-22T11:56:20.269Z,19.45
2023-01-22T11:59:31.363Z,19.96
2023-01-22T12:02:36.663Z,19.54
2023-01-22T12:05:37.445Z,20.57
2023-01-22T12:08:39.229Z,20.64
2023-01-22T12:11:36.390Z,20.52
2023-01-22T12:14:24.746Z,21.08
2023-01-22T12:16:54.674Z,21.56
2023-01-22T12:19:43.266Z,22.22
2023-01-22T12:22:48.327Z,22.10
2023-01-22T12:25:33.671Z,21.78
2023-01-22T12:28:10.307Z,22.07
2023-01-22T12:30:45.928Z,22.83
2023-01-22T12:33:16.598Z,23.70
2023-01-22T12:35:44.068Z,23.41
2023-01-22T12:38:12.435Z,24.26
2023-01-22T12:40:54.211Z,25.53
2023-01-22T12:43:29.649Z,24.43
2023-01-22T12:46:17.825Z,23.86
2023-01-22T12:49:07.990Z,23.34
2023-01-22T12:51:49.167Z,23.71
2023-01-22T12:54:28.109Z,24.51
2023-01-22T12:57:09.962Z,24.00
2023-01-22T12:59:36.471Z,24.14
2023-01-22T13:02:26.603Z,24.24
2023-01-22T13:04:54.526Z,23.37
2023-01-22T13:07:22.581Z,23.40
2023-01-22T13:10:20.327Z,22.68
2023-01-22T13:12:49.503Z,22.38
2023-01-22T13:15:21.408Z,22.28
2023-01-22T13:18:07.186Z,23.65
2023-01-22T13:20:37.645Z,24.38
2023-01-22T13:23:07.317Z,24.29
2023-01-22T13:25:34.481Z,25.61
2023-01-22T13:28:02.929Z,26.48
2023-01-22T13:30:33.536Z,28.07
2023-01-22T13:33:15.099Z,28.06
2023-01-22T13:35:43.870Z,28.83
2023-01-22T13:38:19.120Z,28.14
2023-01-22T13:40:51.428Z,27.08
2023-01-22T13:43:22.730Z,25.66
2023-01-22T13:45:51.355Z,26.72
2023-01-22T13:48:20.028Z,27.58
2023-01-22T13:50:53.979Z,27.97
2023-01-22T13:53:39.599Z,28.83
2023-01-22T13:56:07.335Z,29.75
2023-01-22T13:58:48.333Z,30.31
2023-01-22T14:01:36.665Z,31.03
2023-01-22T14:04:23.783Z,31.80
2023-01-22T14:06:50.463Z,29.75
2023-01-22T14:09:26.891Z,29.58
2023-01-22T14:11:53.603Z,28.00
2023-01-22T14:14:20.540Z,26.95
2023-01-22T14:16:47.713Z,25.71
2023-01-22T14:19:14.532Z,25.17
2023-01-22T14:21:41.774Z,25.44
2023-01-22T14:24:08.471Z,26.25
2023-01-22T14:26:35.466Z,25.62
2023-01-22T14:29:02.025Z,25.19
2023-01-22T14:31:28.667Z,26.60
2023-01-22T14:33:55.228Z,28.55
2023-01-22T14:36:21.912Z,29.17
2023-01-22T14:38:49.481Z,29.65
2023-01-22T14:41:16.015Z,28.56
2023-01-22T14:43:42.582Z,26.79
2023-01-22T14:46:59.395Z,26.47
2023-01-22T14:49:25.982Z,26.86
2023-01-22T14:51:54.158Z,25.59
2023-01-22T14:54:21.054Z,25.21
2023-01-22T14:56:47.665Z,24.84
2023-01-22T14:59:14.261Z,25.30
2023-01-22T15:01:40.895Z,26.37
2023-01-22T15:04:07.644Z,25.96
2023-01-22T15:06:34.306Z,26.41
2023-01-22T15:09:00.943Z,29.46
2023-01-22T15:11:27.548Z,31.93
2023-01-22T15:13:55.557Z,32.07
2023-01-22T15:16:22.274Z,32.69
2023-01-22T15:18:48.900Z,32.09
2023-01-22T15:21:15.641Z,31.37
2023-01-22T15:23:42.302Z,31.84
2023-01-22T15:26:23.263Z,32.31
2023-01-22T15:28:49.889Z,34.03
2023-01-22T15:31:16.542Z,35.16
2023-01-22T15:33:43.141Z,36.13
2023-01-22T15:36:09.819Z,36.79
2023-01-22T15:38:36.512Z,37.48
2023-01-22T15:41:07.214Z,37.93
2023-01-22T15:43:33.901Z,39.16
2023-01-22T15:46:00.500Z,39.39
2023-01-22T15:48:27.140Z,40.62
2023-01-22T15:50:53.674Z,40.32
2023-01-22T15:53:20.281Z,40.50
2023-01-22T15:55:50.289Z,41.25
2023-01-22T15:58:16.926Z,41.16
2023-01-22T16:00:43.484Z,41.71
2023-01-22T16:03:10.132Z,42.03
2023-01-22T16:05:36.956Z,42.53
2023-01-22T16:08:03.624Z,42.02
2023-01-22T16:10:30.196Z,42.98
2023-01-22T16:12:56.880Z,41.99
2023-01-22T16:15:23.428Z,42.96
2023-01-22T16:17:50.014Z,43.51
2023-01-22T16:20:16.955Z,42.90
2023-01-22T16:22:47.107Z,43.84
2023-01-22T16:25:13.773Z,43.65
2023-01-22T16:27:40.492Z,43.25
2023-01-22T16:30:08.046Z,43.78
2023-01-22T16:32:34.763Z,44.53
2023-01-22T16:35:01.260Z,44.48
2023-01-22T16:37:27.854Z,44.38
2023-01-22T16:39:54.423Z,45.37
2023-01-22T16:42:21.069Z,45.84
2023-01-22T16:44:47.715Z,45.94
2023-01-22T16:47:14.294Z,45.73
2023-01-22T16:49:41.081Z,46.51
2023-01-22T16:52:21.851Z,46.03
2023-01-22T16:54:50.247Z,46.75
2023-01-22T16:57:18.033Z,46.99
2023-01-22T16:59:44.647Z,46.49
2023-01-22T17:02:16.527Z,47.33
2023-01-22T17:04:43.415Z,47.50
2023-01-22T17:07:17.756Z,47.21
2023-01-22T17:09:54.389Z,46.88
2023-01-22T17:12:20.907Z,47.49
2023-01-22T17:14:52.479Z,47.68
2023-01-22T17:17:19.190Z,47.75
2023-01-22T17:19:45.774Z,47.27
2023-01-22T17:22:13.246Z,47.23
2023-01-22T17:24:41.429Z,47.46
2023-01-22T17:27:07.887Z,47.52
2023-01-22T17:29:36.153Z,47.03
2023-01-22T17:32:03.870Z,47.93
2023-01-22T17:34:30.804Z,47.37
2023-01-22T17:36:57.358Z,47.52
2023-01-22T17:39:24.308Z,47.69
2023-01-22T17:41:50.915Z,47.76
2023-01-22T17:44:17.575Z,47.83
2023-01-22T17:46:44.298Z,47.25
2023-01-22T17:49:11.320Z,48.21
2023-01-22T17:51:38.283Z,48.86
2023-01-22T17:54:06.114Z,47.81
2023-01-22T17:56:36.342Z,48.63
2023-01-22T17:59:05.902Z,48.93
2023-01-22T18:01:35.000Z,49.29
2023-01-22T18:04:06.213Z,49.03
2023-01-22T18:06:33.531Z,48.90
2023-01-22T18:09:00.726Z,49.69
2023-01-22T18:11:29.471Z,48.95
2023-01-22T18:14:01.566Z,49.19
2023-01-22T18:16:32.011Z,49.62
2023-01-22T18:19:01.584Z,49.37
2023-01-22T18:21:29.003Z,49.60
2023-01-22T18:23:56.037Z,49.83
2023-01-22T18:26:23.106Z,50.14
2023-01-22T18:28:51.106Z,50.43
2023-01-22T18:31:21.359Z,49.78
2023-01-22T18:33:48.403Z,49.76
2023-01-22T18:36:17.969Z,50.01
2023-01-22T18:38:45.007Z,50.18
2023-01-22T18:41:15.123Z,49.92
2023-01-22T18:43:42.149Z,50.05
2023-01-22T18:46:11.804Z,49.33
2023-01-22T18:48:40.266Z,49.65
2023-01-22T18:51:08.969Z,49.39
2023-01-22T18:53:36.779Z,49.64
2023-01-22T18:56:05.706Z,49.76
2023-01-22T18:58:35.328Z,50.10
2023-01-22T19:01:11.656Z,50.41
2023-01-22T19:03:40.240Z,50.35
2023-01-22T19:06:15.967Z,49.74
2023-01-22T19:08:44.805Z,50.31
2023-01-22T19:11:12.784Z,49.69
2023-01-22T19:13:40.630Z,50.46
2023-01-22T19:16:11.329Z,49.75
2023-01-22T19:18:42.229Z,49.23
2023-01-22T19:21:12.045Z,50.31
2023-01-22T19:23:38.627Z,50.13
2023-01-22T19:26:13.538Z,50.40
2023-01-22T19:28:40.472Z,49.56
2023-01-22T19:31:37.149Z,49.86
2023-01-22T19:34:04.803Z,50.97
2023-01-22T19:36:38.626Z,50.20
2023-01-22T19:39:09.715Z,50.16
2023-01-22T19:41:37.594Z,50.22
2023-01-22T19:44:04.785Z,50.22
2023-01-22T19:46:31.453Z,50.17
2023-01-22T19:48:59.044Z,49.65
2023-01-22T19:51:26.989Z,50.07
2023-01-22T19:53:54.641Z,49.59
2023-01-22T19:56:24.986Z,49.49
2023-01-22T19:58:54.431Z,50.46
2023-01-22T20:01:21.706Z,50.72
2023-01-22T20:03:49.141Z,49.64
2023-01-22T20:06:18.421Z,50.57
2023-01-22T20:08:46.325Z,50.49
2023-01-22T20:11:14.326Z,51.08
2023-01-22T20:13:43.323Z,50.06
2023-01-22T20:16:22.774Z,50.54
2023-01-22T20:18:51.027Z,49.50
2023-01-22T20:21:18.581Z,50.76
2023-01-22T20:23:47.703Z,51.06
2023-01-22T20:26:16.199Z,51.10
2023-01-22T20:28:44.778Z,51.53
2023-01-22T20:31:15.732Z,51.92
2023-01-22T20:33:43.199Z,52.10
2023-01-22T20:36:15.343Z,52.12
2023-01-22T20:38:45.927Z,53.10
2023-01-22T20:41:13.579Z,52.85
2023-01-22T20:43:42.832Z,53.02
2023-01-22T20:46:16.364Z,52.86
2023-01-22T20:48:44.349Z,53.09
2023-01-22T20:51:19.675Z,53.39
2023-01-22T20:53:49.483Z,54.76
2023-01-22T20:56:21.396Z,55.20
2023-01-22T20:58:54.490Z,54.39
2023-01-22T21:01:21.561Z,54.66
2023-01-22T21:03:48.822Z,54.71
2023-01-22T21:06:18.479Z,55.37
2023-01-22T21:08:50.277Z,55.60
2023-01-22T21:11:20.664Z,56.10
2023-01-22T21:13:50.055Z,57.14
2023-01-22T21:16:23.495Z,57.13
2023-01-22T21:18:52.840Z,57.51
2023-01-22T21:21:21.061Z,57.42
2023-01-22T21:23:49.122Z,57.62
2023-01-22T21:26:19.427Z,58.38
2023-01-22T21:28:48.082Z,57.79
2023-01-22T21:31:19.417Z,58.18
2023-01-22T21:33:46.802Z,58.62
2023-01-22T21:36:13.846Z,58.87
2023-01-22T21:38:40.644Z,58.68
2023-01-22T21:41:08.555Z,59.01
2023-01-22T21:43:54.255Z,58.87
2023-01-22T21:46:27.313Z,58.34
2023-01-22T21:48:59.435Z,58.17
2023-01-22T21:51:26.809Z,58.06
2023-01-22T21:53:55.958Z,57.80
2023-01-22T21:56:22.644Z,57.42
2023-01-22T21:58:49.665Z,57.46
2023-01-22T22:01:20.121Z,56.60
2023-01-22T22:03:46.717Z,57.07
2023-01-22T22:06:13.876Z,58.00
2023-01-22T22:08:43.361Z,57.56
2023-01-22T22:11:12.448Z,57.47
2023-01-22T22:13:39.807Z,57.38
2023-01-22T22:16:08.141Z,56.56
2023-01-22T22:18:35.629Z,56.80
2023-01-22T22:21:07.656Z,56.53
2023-01-22T22:23:36.499Z,56.10
2023-01-22T22:26:05.426Z,56.85
2023-01-22T22:28:32.976Z,56.52
2023-01-22T22:31:14.135Z,56.35
2023-01-22T22:33:45.468Z,55.90
2023-01-22T22:36:14.091Z,56.03
2023-01-22T22:38:41.294Z,56.00
2023-01-22T22:41:11.649Z,55.08
2023-01-22T22:43:45.329Z,55.97
2023-01-22T22:46:19.914Z,56.44
2023-01-22T22:48:47.269Z,56.75
2023-01-22T22:51:20.326Z,57.15
2023-01-22T22:54:05.750Z,56.66
2023-01-22T22:56:32.510Z,57.22
2023-01-22T22:59:01.961Z,56.95
2023-01-22T23:01:31.530Z,56.58
2023-01-22T23:03:59.134Z,57.07
2023-01-22T23:06:29.411Z,56.68
2023-01-22T23:09:08.642Z,56.88
2023-01-22T23:11:36.436Z,57.08
2023-01-22T23:14:04.586Z,57.10
2023-01-22T23:16:41.060Z,57.30
2023-01-22T23:19:13.523Z,57.30
2023-01-22T23:21:41.474Z,57.14
2023-01-22T23:24:13.480Z,55.98
2023-01-22T23:26:42.311Z,55.77
2023-01-22T23:29:11.250Z,56.64
2023-01-22T23:31:39.272Z,57.88
2023-01-22T23:34:10.388Z,58.30
2023-01-22T23:36:38.541Z,58.86
2023-01-22T23:39:05.233Z,58.69
2023-01-22T23:41:32.578Z,58.42
2023-01-22T23:43:59.098Z,58.80
2023-01-22T23:46:28.520Z,58.95
2023-01-22T23:48:58.902Z,59.75
2023-01-22T23:51:26.618Z,59.84
2023-01-22T23:53:53.606Z,60.52
2023-01-22T23:56:25.739Z,60.27
2023-01-22T23:58:56.854Z,60.39
